Time;durP1;ratioP1;P1;durP2;ratioP2;P2;SDS_P1;SDS_P2;PMS_P1;PMS_P2;Temp;Humidity;BMP_temperature;BMP_pressure;BME280_temperature;BME280_humidity;BME280_pressure;Samples;Min_cycle;Max_cycle;Signal;HPM_P1;HPM_P2
2022/03/22 00:02:01;;;;;;;31.70;22.03;;;7.20;99.90;;;;;;5017627;28;20183;-81
2022/03/22 00:04:27;;;;;;;37.63;22.60;;;7.20;99.90;;;;;;5018368;28;20171;-81
2022/03/22 00:06:52;;;;;;;34.90;22.23;;;7.10;99.90;;;;;;5015922;28;20678;-81
2022/03/22 00:09:18;;;;;;;36.27;22.70;;;7.10;99.90;;;;;;5019149;28;20234;-80
2022/03/22 00:11:44;;;;;;;30.73;21.33;;;7.10;99.90;;;;;;5018601;28;20267;-80
2022/03/22 00:14:09;;;;;;;37.30;21.97;;;7.10;99.90;;;;;;5017448;28;20176;-80
2022/03/22 00:16:36;;;;;;;36.03;22.10;;;7.00;99.90;;;;;;5015907;28;20184;-81
2022/03/22 00:19:02;;;;;;;36.57;21.53;;;7.10;99.90;;;;;;5017821;28;20255;-80
2022/03/22 00:21:28;;;;;;;33.57;21.63;;;7.10;99.90;;;;;;5015408;28;20203;-80
2022/03/22 00:23:54;;;;;;;38.50;22.47;;;7.00;99.90;;;;;;5016000;28;20180;-80
2022/03/22 00:26:20;;;;;;;34.43;22.17;;;7.00;99.90;;;;;;5016531;28;20234;-80
2022/03/22 00:28:46;;;;;;;39.23;23.17;;;6.80;99.90;;;;;;5015931;28;20180;-80
2022/03/22 00:31:12;;;;;;;36.00;22.27;;;6.80;99.90;;;;;;5016211;28;20180;-80
2022/03/22 00:33:38;;;;;;;35.70;20.93;;;6.80;99.90;;;;;;5016459;28;20587;-80
2022/03/22 00:36:04;;;;;;;36.43;21.67;;;6.80;99.90;;;;;;5016352;28;20186;-80
2022/03/22 00:38:30;;;;;;;32.53;21.60;;;6.70;99.90;;;;;;5015366;28;20208;-80
2022/03/22 00:40:56;;;;;;;32.07;20.90;;;6.70;99.90;;;;;;5016259;28;20290;-80
2022/03/22 00:43:22;;;;;;;35.90;21.40;;;6.70;99.90;;;;;;5015902;28;20164;-79
2022/03/22 00:45:48;;;;;;;35.53;20.97;;;6.70;99.90;;;;;;5014379;28;20180;-79
2022/03/22 00:48:14;;;;;;;34.67;22.67;;;6.70;99.90;;;;;;5015712;28;20192;-80
2022/03/22 00:50:43;;;;;;;35.53;22.23;;;6.70;99.90;;;;;;5013980;28;20638;-80
2022/03/22 00:53:10;;;;;;;31.87;21.57;;;6.70;99.90;;;;;;5013971;28;20180;-80
2022/03/22 00:55:37;;;;;;;34.30;20.17;;;6.70;99.90;;;;;;5013946;28;20180;-79
2022/03/22 00:58:03;;;;;;;32.93;20.23;;;6.60;99.90;;;;;;5015188;28;20231;-80
2022/03/22 01:00:30;;;;;;;32.13;19.37;;;6.60;99.90;;;;;;5014595;28;20207;-79
2022/03/22 01:02:58;;;;;;;34.73;20.13;;;6.60;99.90;;;;;;5015155;28;20230;-79
2022/03/22 01:05:26;;;;;;;30.60;20.40;;;6.50;99.90;;;;;;5014090;28;20179;-79
2022/03/22 01:07:57;;;;;;;31.63;20.03;;;6.40;99.90;;;;;;5013180;28;20200;-79
2022/03/22 01:10:24;;;;;;;34.97;20.03;;;6.30;99.90;;;;;;5014260;28;20178;-79
2022/03/22 01:12:50;;;;;;;29.13;20.23;;;6.30;99.90;;;;;;5012885;28;20190;-79
2022/03/22 01:15:19;;;;;;;31.30;18.93;;;6.30;99.90;;;;;;5014910;28;20266;-78
2022/03/22 01:17:47;;;;;;;31.80;19.90;;;6.30;99.90;;;;;;5014216;28;20708;-78
2022/03/22 01:20:13;;;;;;;29.80;19.27;;;6.30;99.90;;;;;;5017614;28;20203;-78
2022/03/22 01:22:40;;;;;;;27.93;18.83;;;6.30;99.90;;;;;;5018166;28;20234;-78
2022/03/22 01:25:08;;;;;;;34.70;20.70;;;6.20;99.90;;;;;;5019238;28;20204;-78
2022/03/22 01:27:36;;;;;;;33.17;20.13;;;6.30;99.90;;;;;;5019736;28;20191;-79
2022/03/22 01:30:03;;;;;;;36.17;21.07;;;6.30;99.90;;;;;;5018830;28;20661;-79
2022/03/22 01:32:28;;;;;;;34.40;20.47;;;6.30;99.90;;;;;;5019088;28;20237;-79
2022/03/22 01:34:54;;;;;;;34.77;20.83;;;6.10;99.90;;;;;;5018974;28;20643;-79
2022/03/22 01:37:20;;;;;;;35.90;21.07;;;6.00;99.90;;;;;;5017294;28;20242;-79
2022/03/22 01:39:45;;;;;;;31.80;20.03;;;6.00;99.90;;;;;;5017432;28;20203;-79
2022/03/22 01:42:11;;;;;;;33.83;20.23;;;5.90;99.90;;;;;;5018663;28;20187;-79
2022/03/22 01:44:36;;;;;;;29.67;19.90;;;5.90;99.90;;;;;;5018780;28;20541;-79
2022/03/22 01:47:03;;;;;;;29.90;19.40;;;5.90;99.90;;;;;;5018861;28;20296;-79
2022/03/22 01:49:29;;;;;;;30.37;19.27;;;6.00;99.90;;;;;;5018526;28;20314;-79
2022/03/22 01:51:56;;;;;;;30.13;20.40;;;5.90;99.90;;;;;;5017040;28;20563;-79
2022/03/22 01:54:22;;;;;;;31.67;19.50;;;5.90;99.90;;;;;;5018553;28;20227;-80
2022/03/22 01:56:49;;;;;;;31.63;20.30;;;5.90;99.90;;;;;;5016843;28;20258;-80
2022/03/22 01:59:15;;;;;;;37.40;20.10;;;5.90;99.90;;;;;;5016979;28;20183;-79
2022/03/22 02:07:16;;;;;;;33.13;20.70;;;5.80;99.90;;;;;;5018190;28;20225;-79
2022/03/22 02:09:42;;;;;;;29.67;20.53;;;5.90;99.90;;;;;;5017232;28;20184;-79
2022/03/22 02:12:09;;;;;;;33.43;21.13;;;5.80;99.90;;;;;;5018175;28;20190;-79
2022/03/22 02:14:35;;;;;;;35.80;21.47;;;5.80;99.90;;;;;;5017895;28;20262;-79
2022/03/22 02:17:10;;;;;;;31.50;20.83;;;5.60;99.90;;;;;;5017650;28;20204;-79
2022/03/22 02:19:39;;;;;;;31.97;20.90;;;5.50;99.90;;;;;;5016723;28;20203;-79
2022/03/22 02:22:09;;;;;;;32.10;19.77;;;5.50;99.90;;;;;;5016466;28;20188;-79
2022/03/22 02:24:36;;;;;;;29.93;20.37;;;5.60;99.90;;;;;;5016293;28;20195;-79
2022/03/22 02:27:02;;;;;;;35.77;20.37;;;5.60;99.90;;;;;;5016786;28;20204;-78
2022/03/22 02:29:28;;;;;;;29.37;19.47;;;5.60;99.90;;;;;;5016915;28;20234;-77
2022/03/22 02:31:54;;;;;;;38.63;22.40;;;5.60;99.90;;;;;;5018029;28;20184;-80
2022/03/22 02:34:20;;;;;;;33.83;20.60;;;5.60;99.90;;;;;;5017842;28;20259;-80
2022/03/22 02:36:46;;;;;;;35.30;19.70;;;5.50;99.90;;;;;;5017189;28;20239;-80
2022/03/22 02:39:12;;;;;;;35.47;20.37;;;5.40;99.90;;;;;;5017591;28;20222;-79
2022/03/22 02:41:37;;;;;;;31.03;19.93;;;5.30;99.90;;;;;;5016805;28;20650;-79
2022/03/22 02:44:04;;;;;;;31.30;20.67;;;5.30;99.90;;;;;;5016681;28;20182;-79
2022/03/22 02:46:29;;;;;;;31.30;20.97;;;5.20;99.90;;;;;;5016631;28;20180;-79
2022/03/22 02:48:55;;;;;;;31.70;19.70;;;5.20;99.90;;;;;;5016588;28;20199;-79
2022/03/22 02:51:21;;;;;;;31.20;20.27;;;5.10;99.90;;;;;;5016233;28;20187;-79
2022/03/22 02:53:47;;;;;;;32.53;20.40;;;5.20;99.90;;;;;;5017189;28;20246;-79
2022/03/22 02:56:13;;;;;;;29.87;18.60;;;5.10;99.90;;;;;;5020042;28;20259;-79
2022/03/22 02:58:39;;;;;;;33.90;19.40;;;5.10;99.90;;;;;;5022941;28;20678;-79
2022/03/22 03:01:05;;;;;;;29.37;17.87;;;5.10;99.90;;;;;;5021294;28;20200;-80
2022/03/22 03:03:33;;;;;;;29.77;19.60;;;5.10;99.90;;;;;;5020104;28;20333;-80
2022/03/22 03:06:00;;;;;;;30.70;18.80;;;5.00;99.90;;;;;;5018760;28;20188;-80
2022/03/22 03:08:26;;;;;;;31.43;19.57;;;5.00;99.90;;;;;;5017795;28;20215;-80
2022/03/22 03:10:53;;;;;;;27.77;17.83;;;5.00;99.90;;;;;;5017250;28;20188;-80
2022/03/22 03:13:19;;;;;;;29.90;18.67;;;4.90;99.90;;;;;;5017074;28;20624;-80
2022/03/22 03:15:46;;;;;;;24.03;17.03;;;4.90;99.90;;;;;;5016555;28;20208;-80
2022/03/22 03:18:13;;;;;;;25.37;18.23;;;4.90;99.90;;;;;;5018796;28;20207;-78
2022/03/22 03:20:39;;;;;;;25.73;18.10;;;4.90;99.90;;;;;;5017981;28;20207;-79
2022/03/22 03:23:05;;;;;;;31.53;19.20;;;4.90;99.90;;;;;;5018253;28;20594;-80
2022/03/22 03:25:31;;;;;;;28.90;17.93;;;4.80;99.90;;;;;;5020668;28;20183;-79
2022/03/22 03:27:56;;;;;;;28.67;18.47;;;4.70;99.90;;;;;;5000814;28;20208;-78
2022/03/22 03:30:22;;;;;;;27.90;17.73;;;4.60;99.90;;;;;;5017039;28;20221;-78
2022/03/22 03:32:48;;;;;;;32.17;20.07;;;4.60;99.90;;;;;;5016915;28;20176;-79
2022/03/22 03:35:14;;;;;;;30.00;18.47;;;4.60;99.90;;;;;;5015341;28;20191;-79
2022/03/22 03:37:43;;;;;;;29.50;18.97;;;4.60;99.90;;;;;;5017401;28;20262;-79
2022/03/22 03:40:10;;;;;;;27.30;18.40;;;4.70;99.90;;;;;;5016808;28;20210;-79
2022/03/22 03:42:42;;;;;;;29.57;18.47;;;4.70;99.90;;;;;;5016451;28;20187;-79
2022/03/22 03:47:57;;;;;;;28.47;18.87;;;4.60;99.90;;;;;;5019208;28;20218;-80
2022/03/22 03:50:23;;;;;;;33.33;20.10;;;4.60;99.90;;;;;;5019238;28;20179;-80
2022/03/22 03:52:49;;;;;;;31.50;19.17;;;4.60;99.90;;;;;;5017447;28;20190;-79
2022/03/22 03:55:15;;;;;;;31.97;19.23;;;4.50;99.90;;;;;;5015702;28;20192;-79
2022/03/22 03:57:41;;;;;;;32.87;18.57;;;4.60;99.90;;;;;;5016034;28;20345;-80
2022/03/22 04:00:07;;;;;;;34.23;18.40;;;4.50;99.90;;;;;;5016195;28;20326;-80
2022/03/22 04:02:33;;;;;;;26.43;18.23;;;4.50;99.90;;;;;;5014896;28;20183;-80
2022/03/22 04:04:59;;;;;;;27.83;17.97;;;4.40;99.90;;;;;;5015060;28;20180;-80
2022/03/22 04:07:27;;;;;;;29.27;19.13;;;4.40;99.90;;;;;;5017195;28;20724;-80
2022/03/22 04:09:56;;;;;;;27.47;18.10;;;4.30;99.90;;;;;;5019854;28;20195;-80
2022/03/22 04:12:22;;;;;;;28.20;19.30;;;4.40;99.90;;;;;;5018241;28;20179;-79
2022/03/22 04:14:51;;;;;;;34.70;20.17;;;4.40;99.90;;;;;;5017817;28;20187;-79
2022/03/22 04:17:18;;;;;;;26.80;18.17;;;4.30;99.90;;;;;;5016679;28;20199;-79
2022/03/22 04:19:45;;;;;;;28.17;19.53;;;4.30;99.90;;;;;;5017972;28;20207;-80
2022/03/22 04:22:11;;;;;;;33.80;19.53;;;4.20;99.90;;;;;;5018078;28;20198;-80
2022/03/22 04:24:37;;;;;;;28.80;19.40;;;4.20;99.90;;;;;;5015934;28;20175;-80
2022/03/22 04:32:43;;;;;;;27.27;18.77;;;4.00;99.90;;;;;;5014610;28;20217;-77
2022/03/22 04:35:28;;;;;;;30.43;19.43;;;4.00;99.90;;;;;;5013479;28;20176;-77
2022/03/22 04:37:55;;;;;;;27.53;18.93;;;4.00;99.90;;;;;;5014651;28;20200;-78
2022/03/22 04:40:22;;;;;;;28.37;18.83;;;4.10;99.90;;;;;;5014391;28;20200;-78
2022/03/22 04:42:48;;;;;;;25.37;18.23;;;4.10;99.90;;;;;;5014880;28;20176;-78
2022/03/22 04:45:14;;;;;;;30.67;19.83;;;4.10;99.90;;;;;;5013367;28;20550;-78
2022/03/22 04:47:40;;;;;;;27.10;18.27;;;4.10;99.90;;;;;;5014813;28;20192;-78
2022/03/22 04:50:08;;;;;;;27.53;19.43;;;4.10;99.90;;;;;;4997134;28;20660;-78
2022/03/22 04:58:03;;;;;;;28.73;19.77;;;3.90;99.90;;;;;;5015184;28;20210;-78
2022/03/22 05:00:30;;;;;;;28.33;19.57;;;3.90;99.90;;;;;;5013218;28;20222;-77
2022/03/22 05:02:56;;;;;;;31.63;19.70;;;3.80;99.90;;;;;;5014392;28;20186;-77
2022/03/22 05:06:25;;;;;;;27.20;19.63;;;3.80;99.90;;;;;;5013413;28;20188;-77
2022/03/22 05:08:07;;;;;;;32.43;21.63;;;3.70;99.90;;;;;;5014089;28;20253;-78
2022/03/22 05:10:34;;;;;;;41.53;22.23;;;3.60;99.90;;;;;;5014422;28;20164;-77
2022/03/22 05:13:00;;;;;;;36.80;21.53;;;3.60;99.90;;;;;;5014383;28;20267;-77
2022/03/22 05:15:25;;;;;;;36.87;22.50;;;3.50;99.90;;;;;;5013953;28;20211;-77
2022/03/22 05:17:51;;;;;;;33.87;21.63;;;3.50;99.90;;;;;;4996722;28;20279;-77
2022/03/22 05:20:17;;;;;;;40.33;24.30;;;3.50;99.90;;;;;;5013996;28;20218;-76
2022/03/22 05:22:44;;;;;;;28.90;20.93;;;3.50;99.90;;;;;;5013740;28;20550;-76
2022/03/22 05:25:10;;;;;;;34.07;21.97;;;3.40;99.90;;;;;;4996381;28;20179;-76
2022/03/22 05:27:39;;;;;;;34.70;21.50;;;3.40;99.90;;;;;;5013534;28;20200;-77
2022/03/22 05:30:06;;;;;;;29.67;21.20;;;3.40;99.90;;;;;;5013458;28;20180;-76
2022/03/22 05:32:32;;;;;;;30.87;19.47;;;3.50;99.90;;;;;;5012326;28;20188;-76
2022/03/22 05:34:58;;;;;;;30.43;20.23;;;3.60;99.90;;;;;;5012549;28;20249;-76
2022/03/22 05:37:24;;;;;;;28.93;19.90;;;3.70;99.90;;;;;;5012338;28;20211;-76
2022/03/22 05:39:50;;;;;;;29.60;21.20;;;3.70;99.90;;;;;;5012817;28;20207;-76
2022/03/22 05:42:16;;;;;;;30.87;19.93;;;3.70;99.90;;;;;;5013525;28;20302;-76
2022/03/22 05:44:43;;;;;;;30.10;20.50;;;3.60;99.90;;;;;;5013549;28;20176;-76
2022/03/22 05:47:10;;;;;;;29.00;20.33;;;3.60;99.90;;;;;;4995937;28;20202;-77
2022/03/22 05:49:36;;;;;;;28.57;20.40;;;3.60;99.90;;;;;;5013464;28;20176;-76
2022/03/22 05:52:05;;;;;;;26.33;19.37;;;3.50;99.90;;;;;;5013404;28;20171;-76
2022/03/22 05:54:32;;;;;;;32.77;21.47;;;3.60;99.90;;;;;;5013495;28;20211;-76
2022/03/22 05:56:58;;;;;;;36.13;20.27;;;3.60;99.90;;;;;;5013750;28;20536;-77
2022/03/22 05:59:24;;;;;;;31.53;19.83;;;3.60;99.90;;;;;;5013544;28;20234;-77
2022/03/22 06:01:51;;;;;;;34.13;21.47;;;3.70;99.90;;;;;;5012297;28;20180;-77
2022/03/22 06:04:16;;;;;;;31.47;20.03;;;3.70;99.90;;;;;;5013384;28;20168;-77
2022/03/22 06:06:42;;;;;;;36.10;21.57;;;3.80;99.90;;;;;;5017026;28;20207;-77
2022/03/22 06:09:11;;;;;;;38.33;22.10;;;4.00;99.90;;;;;;5017477;28;20207;-77
2022/03/22 06:11:37;;;;;;;31.30;21.27;;;4.00;99.90;;;;;;5000150;28;20179;-76
2022/03/22 06:14:03;;;;;;;31.27;20.57;;;4.10;99.90;;;;;;5017428;28;20180;-76
2022/03/22 06:16:29;;;;;;;35.77;23.10;;;4.10;99.90;;;;;;5017268;28;20184;-78
2022/03/22 06:18:55;;;;;;;31.10;21.80;;;4.20;99.90;;;;;;5016964;28;20176;-77
2022/03/22 06:21:21;;;;;;;35.43;21.47;;;4.20;99.90;;;;;;5015616;28;20270;-76
2022/03/22 06:23:49;;;;;;;31.07;22.03;;;4.30;99.90;;;;;;4999310;28;20634;-76
2022/03/22 06:26:15;;;;;;;30.27;21.07;;;4.30;99.90;;;;;;5016597;28;20176;-76
2022/03/22 06:28:41;;;;;;;26.30;19.07;;;4.30;99.90;;;;;;5015470;28;20203;-77
2022/03/22 06:31:07;;;;;;;25.93;18.87;;;4.40;99.90;;;;;;5015567;28;20634;-77
2022/03/22 06:33:33;;;;;;;30.57;19.00;;;4.50;99.90;;;;;;5016775;28;20205;-77
2022/03/22 06:35:59;;;;;;;26.97;18.77;;;4.60;99.90;;;;;;5017002;28;20183;-77
2022/03/22 06:38:25;;;;;;;32.43;19.77;;;4.60;99.90;;;;;;5016554;28;20254;-77
2022/03/22 06:40:51;;;;;;;28.77;18.30;;;4.70;99.90;;;;;;5016561;28;20203;-77
2022/03/22 06:43:18;;;;;;;28.27;19.37;;;4.80;99.90;;;;;;5016138;28;20176;-77
2022/03/22 06:45:45;;;;;;;31.10;18.70;;;4.90;99.90;;;;;;4999174;28;20191;-77
2022/03/22 06:48:12;;;;;;;27.00;18.77;;;5.10;99.90;;;;;;5015120;28;20222;-77
2022/03/22 06:50:38;;;;;;;28.13;19.33;;;5.20;99.90;;;;;;5016729;28;20586;-77
2022/03/22 06:53:06;;;;;;;36.87;20.07;;;5.30;99.90;;;;;;5016369;28;20180;-77
2022/03/22 06:55:32;;;;;;;27.07;18.40;;;5.40;99.90;;;;;;5015009;28;20183;-77
2022/03/22 06:57:58;;;;;;;30.77;19.50;;;5.60;99.90;;;;;;5014866;28;20208;-77
2022/03/22 07:00:31;;;;;;;28.13;19.07;;;5.70;99.90;;;;;;5016085;28;20621;-77
2022/03/22 07:02:57;;;;;;;29.37;19.77;;;5.90;99.90;;;;;;5016268;28;20187;-77
2022/03/22 07:05:23;;;;;;;34.07;20.20;;;6.00;99.90;;;;;;4998682;28;20712;-77
2022/03/22 07:07:49;;;;;;;28.80;19.77;;;6.10;99.90;;;;;;5016153;28;20278;-77
2022/03/22 07:10:17;;;;;;;35.07;18.87;;;6.30;99.90;;;;;;5016600;28;20179;-77
2022/03/22 07:13:01;;;;;;;29.23;19.27;;;6.50;99.90;;;;;;5016184;28;20203;-77
2022/03/22 07:15:45;;;;;;;29.10;17.93;;;6.70;99.90;;;;;;5015799;28;20221;-77
2022/03/22 07:18:12;;;;;;;25.57;18.10;;;7.00;99.90;;;;;;5016105;28;20325;-77
2022/03/22 07:20:39;;;;;;;28.47;18.07;;;7.10;99.90;;;;;;5014588;28;20208;-77
2022/03/22 07:23:05;;;;;;;27.27;18.23;;;7.30;99.90;;;;;;4998299;28;20239;-77
2022/03/22 07:25:33;;;;;;;29.80;17.90;;;7.40;99.90;;;;;;5016124;28;20670;-77
2022/03/22 07:27:59;;;;;;;27.47;17.47;;;7.60;99.90;;;;;;5016448;28;20211;-78
2022/03/22 07:30:25;;;;;;;24.57;17.27;;;7.80;99.90;;;;;;5015745;28;20176;-78
2022/03/22 07:32:51;;;;;;;27.00;18.07;;;7.90;99.90;;;;;;4998298;28;20202;-76
2022/03/22 07:35:20;;;;;;;27.87;19.00;;;8.00;99.90;;;;;;5015929;28;20230;-77
2022/03/22 07:37:46;;;;;;;23.60;16.00;;;8.20;99.90;;;;;;5016693;28;20210;-77
2022/03/22 07:40:12;;;;;;;26.57;18.60;;;8.40;99.90;;;;;;5018189;28;20320;-77
2022/03/22 07:42:38;;;;;;;21.90;17.00;;;8.70;99.90;;;;;;5000309;28;20665;-77
2022/03/22 07:45:09;;;;;;;28.87;17.43;;;8.90;99.90;;;;;;5015079;28;20180;-77
2022/03/22 07:47:35;;;;;;;24.70;16.90;;;9.10;99.90;;;;;;5016898;28;20192;-78
2022/03/22 07:53:05;;;;;;;23.13;16.07;;;9.40;99.90;;;;;;5017951;28;20240;-77
2022/03/22 07:55:39;;;;;;;22.10;16.43;;;9.50;99.90;;;;;;5016082;28;20179;-77
2022/03/22 07:58:05;;;;;;;24.07;16.93;;;9.80;99.90;;;;;;5015490;28;20212;-78
2022/03/22 08:00:34;;;;;;;25.23;16.97;;;10.00;99.90;;;;;;5014168;28;20207;-78
2022/03/22 08:03:03;;;;;;;24.70;16.80;;;10.10;99.90;;;;;;5015250;28;20180;-78
2022/03/22 08:05:29;;;;;;;22.80;15.53;;;10.30;99.90;;;;;;5015878;28;20179;-78
2022/03/22 08:07:55;;;;;;;24.20;16.70;;;10.40;99.90;;;;;;5015216;28;20207;-78
2022/03/22 08:10:24;;;;;;;23.17;16.20;;;10.60;99.90;;;;;;5014930;28;20183;-78
2022/03/22 08:12:49;;;;;;;22.50;16.70;;;10.80;99.90;;;;;;5013919;28;20233;-78
2022/03/22 08:15:17;;;;;;;26.27;16.97;;;11.00;99.90;;;;;;5015057;28;20184;-78
2022/03/22 08:17:43;;;;;;;22.43;16.23;;;11.20;99.90;;;;;;5013441;28;20210;-78
2022/03/22 08:20:10;;;;;;;22.47;16.57;;;11.40;99.90;;;;;;5014824;28;20195;-78
2022/03/22 08:23:11;;;;;;;20.90;16.50;;;11.60;99.90;;;;;;5014837;28;20168;-78
2022/03/22 08:25:39;;;;;;;20.33;15.70;;;12.20;99.90;;;;;;4935129;29;20185;-78
2022/03/22 08:28:07;;;;;;;19.00;13.88;;;13.30;99.90;;;;;;4999009;28;20266;-78
2022/03/22 08:30:34;;;;;;;17.85;13.85;;;15.00;99.90;;;;;;5013890;28;20266;-78
2022/03/22 08:33:09;;;;;;;15.27;11.98;;;16.40;99.90;;;;;;5013959;28;20180;-78
2022/03/22 08:35:36;;;;;;;18.60;11.93;;;17.90;99.90;;;;;;4997575;28;20175;-78
2022/03/22 08:38:02;;;;;;;17.55;12.63;;;19.10;99.90;;;;;;5013966;28;20203;-79
2022/03/22 08:40:28;;;;;;;16.70;12.90;;;20.40;99.90;;;;;;4997368;28;20664;-79
2022/03/22 08:42:55;;;;;;;16.88;12.98;;;20.60;99.90;;;;;;5015097;28;20251;-79
2022/03/22 08:45:23;;;;;;;14.50;12.52;;;20.80;99.90;;;;;;5015352;28;20584;-79
2022/03/22 08:47:50;;;;;;;22.73;13.30;;;21.50;99.90;;;;;;5013089;28;20202;-77
2022/03/22 08:50:21;;;;;;;15.23;11.88;;;21.90;99.90;;;;;;5014250;28;20180;-77
2022/03/22 08:52:48;;;;;;;14.85;12.82;;;22.30;99.90;;;;;;5012816;28;20172;-77
2022/03/22 08:55:15;;;;;;;14.50;12.07;;;22.90;99.90;;;;;;4996459;28;20180;-77
2022/03/22 08:57:42;;;;;;;18.80;13.70;;;23.30;99.90;;;;;;5014133;28;20199;-77
2022/03/22 09:00:10;;;;;;;17.67;13.25;;;23.50;99.90;;;;;;5014074;28;20195;-77
2022/03/22 09:02:36;;;;;;;16.85;13.05;;;22.60;99.90;;;;;;5014125;28;20206;-77
2022/03/22 09:07:48;;;;;;;15.30;12.32;;;22.10;99.90;;;;;;5014540;28;20214;-77
2022/03/22 09:10:14;;;;;;;17.23;12.48;;;22.00;99.90;;;;;;5014104;28;20637;-77
2022/03/22 09:12:42;;;;;;;16.58;13.05;;;22.20;99.90;;;;;;5012600;28;20566;-77
2022/03/22 09:15:09;;;;;;;18.63;12.93;;;22.30;99.90;;;;;;5013784;28;20523;-77
2022/03/22 09:17:35;;;;;;;17.40;12.88;;;22.30;99.90;;;;;;4996253;28;20208;-76
2022/03/22 09:20:02;;;;;;;16.17;12.10;;;22.20;99.90;;;;;;5013846;28;20709;-76
2022/03/22 09:22:27;;;;;;;15.73;12.63;;;21.90;99.90;;;;;;5014020;28;20175;-76
2022/03/22 09:24:53;;;;;;;16.10;12.30;;;21.40;99.90;;;;;;5014225;28;20638;-76
2022/03/22 09:27:19;;;;;;;17.45;12.82;;;21.20;99.90;;;;;;5014858;28;20553;-77
2022/03/22 09:29:44;;;;;;;17.92;12.98;;;21.00;99.90;;;;;;5014612;28;20172;-77
2022/03/22 09:32:10;;;;;;;15.68;12.48;;;20.70;99.90;;;;;;5014097;28;20249;-77
2022/03/22 09:34:36;;;;;;;19.88;13.32;;;20.20;99.90;;;;;;4996163;28;20208;-76
2022/03/22 09:37:02;;;;;;;16.45;12.65;;;19.40;99.90;;;;;;5013841;28;20191;-77
2022/03/22 09:39:28;;;;;;;16.90;13.10;;;18.30;99.90;;;;;;5015481;28;20184;-77
2022/03/22 09:41:56;;;;;;;18.35;12.70;;;17.70;99.90;;;;;;5017860;28;20190;-77
2022/03/22 09:44:22;;;;;;;18.10;13.93;;;17.40;99.90;;;;;;5000047;28;20195;-77
2022/03/22 09:46:49;;;;;;;18.95;13.23;;;17.50;99.90;;;;;;5017371;28;20192;-78
2022/03/22 09:49:18;;;;;;;18.35;12.55;;;17.40;99.90;;;;;;5017364;28;20179;-77
2022/03/22 09:51:44;;;;;;;18.88;13.07;;;17.40;99.90;;;;;;5017775;28;20172;-77
2022/03/22 09:54:12;;;;;;;16.25;12.63;;;17.30;99.90;;;;;;5000487;28;20176;-77
2022/03/22 09:56:42;;;;;;;17.50;13.43;;;17.20;99.90;;;;;;5017994;28;20194;-78
2022/03/22 09:59:09;;;;;;;17.13;12.70;;;17.30;99.90;;;;;;5017826;28;20172;-78
2022/03/22 10:01:35;;;;;;;16.77;12.68;;;17.30;99.90;;;;;;5017336;28;20662;-77
2022/03/22 10:04:00;;;;;;;17.20;12.70;;;17.40;99.90;;;;;;5017220;28;20183;-77
2022/03/22 10:06:28;;;;;;;20.05;12.77;;;17.50;99.90;;;;;;4999333;28;20188;-77
2022/03/22 10:08:54;;;;;;;16.98;12.57;;;17.50;99.90;;;;;;5017309;28;20169;-78
2022/03/22 10:11:20;;;;;;;18.95;12.32;;;17.40;99.90;;;;;;5015999;28;20632;-78
2022/03/22 10:13:56;;;;;;;22.42;13.05;;;17.50;99.90;;;;;;5017610;28;20176;-78
2022/03/22 10:16:22;;;;;;;16.42;11.98;;;17.40;99.90;;;;;;5016136;28;20183;-78
2022/03/22 10:18:48;;;;;;;16.95;13.05;;;17.40;99.90;;;;;;5017546;28;20176;-79
2022/03/22 10:21:14;;;;;;;16.10;11.93;;;17.40;99.90;;;;;;4999956;28;20214;-79
2022/03/22 10:23:54;;;;;;;18.95;11.65;;;17.50;99.90;;;;;;5018612;28;20248;-79
2022/03/22 10:26:21;;;;;;;13.82;10.73;;;17.50;99.90;;;;;;5023811;28;20654;-79
2022/03/22 10:28:51;;;;;;;18.65;11.63;;;17.60;99.90;;;;;;5020547;28;20200;-79
2022/03/22 10:31:17;;;;;;;15.18;11.50;;;17.50;99.90;;;;;;5020924;28;20172;-79
2022/03/22 10:33:53;;;;;;;18.92;10.32;;;17.50;99.90;;;;;;5019883;28;20199;-79
2022/03/22 10:36:21;;;;;;;15.13;10.05;;;17.60;99.90;;;;;;5018212;28;20653;-79
2022/03/22 10:38:59;;;;;;;15.57;9.75;;;17.70;99.90;;;;;;5018074;28;20231;-79
2022/03/22 10:41:33;;;;;;;14.23;9.82;;;17.80;99.90;;;;;;5019117;28;20205;-79
2022/03/22 10:44:23;;;;;;;13.60;9.70;;;17.80;99.90;;;;;;5019297;28;20156;-79
2022/03/22 10:46:49;;;;;;;15.77;10.75;;;18.00;99.90;;;;;;5000774;28;20642;-79
2022/03/22 10:49:17;;;;;;;14.95;10.13;;;17.90;99.90;;;;;;5019083;28;20210;-79
2022/03/22 10:51:48;;;;;;;18.10;10.48;;;18.00;99.90;;;;;;5015726;28;20196;-79
2022/03/22 10:54:17;;;;;;;17.90;10.52;;;18.20;99.90;;;;;;5015957;28;20238;-78
2022/03/22 10:56:44;;;;;;;15.85;10.55;;;18.40;99.90;;;;;;5020866;28;20196;-79
2022/03/22 10:59:13;;;;;;;16.95;12.13;;;18.50;99.90;;;;;;5018741;28;20180;-79
2022/03/22 11:01:42;;;;;;;20.35;11.57;;;18.70;99.90;;;;;;5018294;28;20203;-79
2022/03/22 11:04:09;;;;;;;18.75;12.40;;;18.80;99.90;;;;;;5019607;28;20176;-79
2022/03/22 11:06:37;;;;;;;17.52;11.55;;;18.60;99.90;;;;;;5018594;28;20232;-79
2022/03/22 11:09:03;;;;;;;24.30;12.45;;;18.80;99.90;;;;;;5017571;28;20593;-79
2022/03/22 11:11:31;;;;;;;18.65;11.32;;;19.00;99.90;;;;;;5018815;28;20234;-79
2022/03/22 11:13:57;;;;;;;15.23;9.57;;;19.20;99.90;;;;;;5017605;28;20195;-79
2022/03/22 11:16:28;;;;;;;19.88;12.30;;;19.40;99.90;;;;;;4999247;28;20187;-79
2022/03/22 11:18:56;;;;;;;16.73;10.10;;;19.50;99.90;;;;;;5016878;28;20166;-79
2022/03/22 11:21:22;;;;;;;15.18;11.15;;;19.70;99.90;;;;;;5016732;28;20338;-79
2022/03/22 11:23:49;;;;;;;18.83;11.18;;;20.00;99.90;;;;;;5015622;28;20705;-79
2022/03/22 11:26:23;;;;;;;16.05;10.95;;;20.10;99.90;;;;;;5016695;28;20230;-79
2022/03/22 11:28:49;;;;;;;18.27;11.43;;;20.30;99.90;;;;;;5017470;28;20215;-79
2022/03/22 11:31:21;;;;;;;18.00;10.80;;;20.50;99.90;;;;;;5017005;28;20222;-79
2022/03/22 11:36:43;;;;;;;15.43;10.55;;;20.80;99.90;;;;;;5017800;28;20170;-79
2022/03/22 11:39:14;;;;;;;16.70;11.13;;;20.80;99.90;;;;;;5018035;28;20218;-79
2022/03/22 11:44:34;;;;;;;18.70;12.23;;;20.90;99.90;;;;;;5018473;28;20163;-79
2022/03/22 11:47:14;;;;;;;17.92;10.85;;;21.30;99.90;;;;;;5018174;28;20599;-79
2022/03/22 11:49:55;;;;;;;17.77;11.23;;;21.40;99.90;;;;;;5019375;28;20182;-79
2022/03/22 11:52:40;;;;;;;13.48;9.63;;;21.60;99.90;;;;;;5019464;28;20540;-79
2022/03/22 11:55:08;;;;;;;17.10;11.68;;;21.50;99.90;;;;;;4998831;28;20263;-79
2022/03/22 11:57:50;;;;;;;14.32;9.38;;;21.60;99.90;;;;;;5015958;28;20234;-79
2022/03/22 12:00:17;;;;;;;15.23;9.45;;;21.70;99.90;;;;;;5015648;28;20617;-79
2022/03/22 12:02:47;;;;;;;17.88;10.90;;;22.00;99.90;;;;;;4997093;28;20171;-79
2022/03/22 12:05:17;;;;;;;21.73;12.30;;;22.00;99.90;;;;;;5015499;28;20156;-79
2022/03/22 12:07:43;;;;;;;16.38;9.65;;;22.00;99.90;;;;;;5014284;28;20207;-79
2022/03/22 12:10:13;;;;;;;15.52;9.05;;;22.00;99.90;;;;;;5015644;28;20222;-79
2022/03/22 12:12:42;;;;;;;15.75;8.25;;;22.20;99.90;;;;;;4998329;28;20548;-79
2022/03/22 12:15:09;;;;;;;11.88;8.38;;;22.40;99.90;;;;;;5015617;28;20200;-79
2022/03/22 12:17:36;;;;;;;20.23;7.97;;;22.50;99.90;;;;;;5015564;28;20227;-79
2022/03/22 12:20:14;;;;;;;16.23;8.38;;;22.50;99.90;;;;;;5015899;28;20563;-79
2022/03/22 12:22:43;;;;;;;17.05;7.88;;;22.70;99.90;;;;;;5014956;28;20152;-77
2022/03/22 12:25:11;;;;;;;19.63;7.95;;;22.70;99.90;;;;;;5014581;28;20168;-77
2022/03/22 12:27:51;;;;;;;14.43;9.00;;;22.60;99.40;;;;;;5014700;28;20196;-77
2022/03/22 12:30:17;;;;;;;15.85;9.35;;;22.90;99.30;;;;;;4997444;28;20172;-77
2022/03/22 12:32:43;;;;;;;16.17;9.98;;;23.10;99.60;;;;;;4997105;28;20229;-77
2022/03/22 12:35:11;;;;;;;17.20;9.82;;;23.20;99.50;;;;;;4998332;28;20184;-79
2022/03/22 12:37:37;;;;;;;17.20;10.63;;;23.60;99.80;;;;;;4999057;28;20199;-77
2022/03/22 12:40:04;;;;;;;21.98;10.60;;;23.70;99.40;;;;;;5013310;28;20211;-77
2022/03/22 12:42:31;;;;;;;17.80;11.32;;;23.60;99.40;;;;;;5013506;28;20234;-77
2022/03/22 12:44:57;;;;;;;14.90;11.43;;;23.40;99.30;;;;;;5014884;28;20688;-78
2022/03/22 12:47:23;;;;;;;18.88;10.80;;;23.40;99.70;;;;;;5014355;28;20207;-78
2022/03/22 12:49:49;;;;;;;18.30;11.77;;;23.20;99.90;;;;;;5014438;28;20198;-78
2022/03/22 12:52:15;;;;;;;14.13;9.82;;;23.40;99.90;;;;;;5013725;28;20278;-78
2022/03/22 12:54:43;;;;;;;20.05;10.95;;;23.50;98.90;;;;;;4997069;28;20271;-78
2022/03/22 12:57:16;;;;;;;19.63;12.10;;;23.60;99.60;;;;;;5014628;28;20200;-78
2022/03/22 12:59:42;;;;;;;14.30;10.15;;;23.60;99.70;;;;;;5014671;28;20175;-78
2022/03/22 13:02:09;;;;;;;20.27;11.20;;;23.70;99.60;;;;;;4997004;28;20250;-78
2022/03/22 13:04:47;;;;;;;15.98;11.25;;;24.00;98.60;;;;;;5013408;28;20179;-78
2022/03/22 13:07:14;;;;;;;16.23;10.05;;;24.10;99.30;;;;;;5014279;28;20677;-78